Gardner, KS (66030)

6:59 AM CDT on August 27, 2016 (GMT -0500)
Thunderbird Meadows | | Change Station

Elev 1047 ft 38.82 °N, 94.93 °W | Updated 4 minutes ago

Overcast
Overcast
70.0 °F
Feels Like 70.0 °F
N
1.7
Wind Variable Wind from SSE

Today
High -- | Low -- °F
--% Chance of Precip.
Yesterday
High -- | Low -- °F
Precip. -- in
Pressure 30.02 in
Visibility 10.0 miles
Clouds Mostly Cloudy 4800 ft
Mostly Cloudy 6000 ft
Overcast 11000 ft
Dew Point 68 °F
Humidity 93%
Rainfall 0.01 in
Snow Depth Not available.
6:44 AM 7:56 PM
Waning Crescent, 25% visible
METAR KIXD 271153Z 20005KT 10SM BKN048 BKN060 OVC110 22/21 A3005 RMK AO2 SLP166 70058 T02170211 10217 20206 53011
Pressure 30.02 in
Visibility 10.0 miles
Clouds Mostly Cloudy 4800 ft
Mostly Cloudy 6000 ft
Overcast 11000 ft
Dew Point 68 °F
Humidity 93%
Rainfall 0.01 in
Snow Depth Not available.
6:44 AM 7:56 PM
Waning Crescent, 25% visible
METAR KIXD 271153Z 20005KT 10SM BKN048 BKN060 OVC110 22/21 A3005 RMK AO2 SLP166 70058 T02170211 10217 20206 53011

10-Day Weather Forecast

Almanac

Astronomy

Aug. 27, 2016 Rise Set
Actual Time
Civil Twilight
Nautical Twilight
Astronomical Twilight
Moon
Length of Visible Light
Length of Day
Tomorrow will be .
, % of the Moon is Illuminated

Today's Extremes

State Highs State Lows

Community

WunderPhotos

Upload Photos

1,935,325 photos uploaded!

WunderBlog® & News

Nearby

Air Quality

  Air Quality AQ Index Pollutant
Not available.

Snow Depth

Station Depth Elevation

Earthquake Activity

City Distance Mag. Time & Date
Minimum magnitude displayed is 2.5.

Coastal Water Temperatures

Place Temperature

Stations

Nearby Weather Stations

Station Location Temp. Windchill Dew Point Humidity Wind Precip. Elev Updated Type
                   

Watches & Warnings

There are currently no watches in effect.